Emigrant Gap, CA

4:07 AM PDT on May 22, 2015 (GMT -0700)
PlaVada | | Change Station
CLOSE
Current Station
Personal Weather Station
Location: Soda Springs, CA
Elevation: 6089 ft
Nearby Weather Stations

Elev 6089 ft 39.32 °N, 120.45 °W | Updated 15 minutes ago

Rain
Rain
41.2 °F
Feels Like 41 °F
N
0.0
Wind Variable Wind from NW

Today
High -- | Low -- °F
--% Chance of Precip.
Yesterday
High -- | Low -- °F
Precip. -- in
5:43 AM 8:14 PM
Waxing Crescent, 20% visible
Pressure 29.91 in
Visibility 0.2 miles
Clouds
Windchill 41 °F
Dew Point 41 °F
Humidity 99%
Rainfall 0.00 in
Snow Depth Not available.
UV Not available.
Pollen 7.20 out of 12
Air Quality Not available.
Flu Activity Sporadic
METAR KBLU 221052Z AUTO 31003KT 1/4SM -RA FG VV002 07/05 A3000 RMK AO2 SLP129 P0003 T00670050

More Conditions Fewer Conditions

Pressure 29.91 in
Visibility 0.2 miles
Clouds
Windchill 41 °F
Dew Point 41 °F
Humidity 99%
Rainfall 0.00 in
Snow Depth Not available.
UV Not available.
Pollen 7.20 out of 12
Air Quality Not available.
Flu Activity Sporadic
METAR KBLU 221052Z AUTO 31003KT 1/4SM -RA FG VV002 07/05 A3000 RMK AO2 SLP129 P0003 T00670050

More Conditions Fewer Conditions

10-Day Weather Forecast

Almanac

Astronomy

May. 22, 2015 Rise Set
Actual Time
Civil Twilight
Nautical Twilight
Astronomical Twilight
Moon
Length of Visible Light
Length of Day
Tomorrow will be .
, % of the Moon is Illuminated

Today's Extremes

State Highs State Lows

Community

WunderPhotos

Upload Photos

1,823,200 photos uploaded!

WunderBlogs® & News

Nearby

Air Quality

  Air Quality AQ Index Pollutant
Not available.

Snow Depth

Station Depth Elevation

Earthquake Activity

City Distance Mag. Time & Date
Minimum magnitude displayed is 2.5.

Coastal Water Temperatures

Place Temperature

Stations

Nearby Weather Stations

Station Location Temp. Windchill Dew Point Humidity Wind Precip. Elev Updated Type